Time;durP1;ratioP1;P1;durP2;ratioP2;P2;SDS_P1;SDS_P2;PMS_P1;PMS_P2;Temp;Humidity;BMP_temperature;BMP_pressure;BME280_temperature;BME280_humidity;BME280_pressure;Samples;Min_cycle;Max_cycle;Signal;HPM_P1;HPM_P2
2023/12/21 00:00:58;;;;;;;2.58;1.45;;;10.30;99.90;;;;;;5025040;28;20025;-68
2023/12/21 00:03:23;;;;;;;3.38;1.38;;;10.30;99.90;;;;;;5023753;28;20026;-67
2023/12/21 00:05:49;;;;;;;1.90;1.40;;;10.30;99.90;;;;;;5028289;28;20080;-65
2023/12/21 00:08:14;;;;;;;2.08;1.40;;;10.40;99.90;;;;;;5020065;28;20030;-66
2023/12/21 00:10:40;;;;;;;4.18;1.25;;;10.40;99.90;;;;;;5024582;28;20061;-67
2023/12/21 00:13:05;;;;;;;1.63;1.25;;;10.40;99.90;;;;;;5021385;28;20060;-67
2023/12/21 00:15:31;;;;;;;2.33;1.80;;;10.40;99.90;;;;;;5016945;28;20052;-65
2023/12/21 00:17:56;;;;;;;2.20;1.33;;;10.40;99.90;;;;;;5019391;28;20026;-66
2023/12/21 00:20:22;;;;;;;3.97;1.33;;;10.40;99.90;;;;;;5022748;28;20041;-67
2023/12/21 00:22:47;;;;;;;3.40;1.15;;;10.40;99.90;;;;;;5019461;28;20021;-67
2023/12/21 00:25:13;;;;;;;2.78;1.45;;;10.40;99.90;;;;;;5010487;28;20026;-64
2023/12/21 00:27:39;;;;;;;3.00;1.15;;;10.40;99.90;;;;;;5015803;28;20026;-66
2023/12/21 00:30:05;;;;;;;1.20;0.80;;;10.40;99.90;;;;;;5024601;28;20673;-67
2023/12/21 00:32:31;;;;;;;2.97;1.30;;;10.50;99.90;;;;;;5017050;28;20217;-67
2023/12/21 00:34:56;;;;;;;2.40;1.10;;;10.40;99.90;;;;;;5016736;28;20026;-67
2023/12/21 00:37:22;;;;;;;1.77;1.27;;;10.40;99.90;;;;;;5019553;28;20091;-65
2023/12/21 00:39:48;;;;;;;3.08;1.30;;;10.40;99.90;;;;;;5019695;28;20033;-65
2023/12/21 00:42:13;;;;;;;2.45;1.35;;;10.40;99.90;;;;;;5021600;28;20035;-68
2023/12/21 00:44:39;;;;;;;1.98;1.35;;;10.40;99.90;;;;;;5022010;28;20532;-66
2023/12/21 00:47:05;;;;;;;2.38;1.80;;;10.50;99.90;;;;;;5019675;28;20119;-66
2023/12/21 00:49:31;;;;;;;1.83;1.40;;;10.40;99.90;;;;;;5017729;28;20136;-65
2023/12/21 00:51:56;;;;;;;2.45;1.58;;;10.40;99.90;;;;;;5021683;28;20407;-66
2023/12/21 00:54:22;;;;;;;1.70;1.20;;;10.40;99.90;;;;;;5020871;28;20026;-66
2023/12/21 00:56:47;;;;;;;3.00;1.45;;;10.40;99.90;;;;;;5016312;28;20104;-68
2023/12/21 00:59:13;;;;;;;3.65;1.65;;;10.50;99.90;;;;;;5020420;28;21152;-67
2023/12/21 01:01:38;;;;;;;1.80;1.30;;;10.40;99.90;;;;;;5018441;28;20034;-67
2023/12/21 01:04:04;;;;;;;4.63;1.63;;;10.50;99.90;;;;;;5024253;28;20573;-68
2023/12/21 01:06:30;;;;;;;3.67;1.52;;;10.50;99.90;;;;;;5017198;28;20477;-67
2023/12/21 01:08:55;;;;;;;2.10;1.52;;;10.40;99.90;;;;;;5026404;28;20079;-66
2023/12/21 01:11:21;;;;;;;3.17;1.80;;;10.50;99.90;;;;;;5023171;28;20021;-66
2023/12/21 01:13:46;;;;;;;4.22;1.80;;;10.50;99.90;;;;;;5020425;28;20127;-65
2023/12/21 01:16:14;;;;;;;2.67;1.50;;;10.50;99.90;;;;;;5019977;28;20105;-66
2023/12/21 01:18:41;;;;;;;3.92;1.63;;;10.50;99.90;;;;;;5018632;28;20549;-65
2023/12/21 01:21:06;;;;;;;4.68;1.70;;;10.50;99.90;;;;;;5021856;28;20029;-66
2023/12/21 01:23:32;;;;;;;3.20;1.85;;;10.50;99.90;;;;;;5017056;28;20022;-65
2023/12/21 01:25:58;;;;;;;3.92;1.67;;;10.50;99.90;;;;;;5018663;28;20084;-67
2023/12/21 01:28:23;;;;;;;2.28;1.50;;;10.50;99.90;;;;;;5020319;28;20032;-64
2023/12/21 01:30:49;;;;;;;4.10;1.52;;;10.50;99.90;;;;;;5013072;28;20033;-66
2023/12/21 01:33:15;;;;;;;3.78;1.90;;;10.40;99.90;;;;;;5027878;28;20026;-65
2023/12/21 01:35:40;;;;;;;4.15;2.10;;;10.40;99.90;;;;;;5014179;28;20038;-65
2023/12/21 01:38:06;;;;;;;4.55;2.05;;;10.40;99.90;;;;;;5019530;28;20028;-67
2023/12/21 01:40:31;;;;;;;5.25;1.83;;;10.40;99.90;;;;;;5018570;28;20033;-67
2023/12/21 01:42:57;;;;;;;3.33;1.70;;;10.40;99.90;;;;;;5011792;28;20017;-66
2023/12/21 01:45:22;;;;;;;3.65;2.00;;;10.40;99.90;;;;;;5017201;28;20036;-67
2023/12/21 01:47:48;;;;;;;2.33;1.63;;;10.40;99.90;;;;;;5026958;28;20040;-67
2023/12/21 01:50:14;;;;;;;2.50;1.63;;;10.40;99.90;;;;;;5024588;28;20121;-67
2023/12/21 01:52:41;;;;;;;4.28;2.05;;;10.40;99.90;;;;;;5020948;28;20524;-67
2023/12/21 01:55:08;;;;;;;3.40;1.77;;;10.30;99.90;;;;;;5016918;28;20103;-66
2023/12/21 01:57:34;;;;;;;3.63;1.83;;;10.40;99.90;;;;;;5017297;28;20032;-66
2023/12/21 02:00:00;;;;;;;3.70;1.75;;;10.40;99.90;;;;;;5019068;28;20464;-66
2023/12/21 02:02:25;;;;;;;3.65;1.80;;;10.40;99.90;;;;;;5019919;28;20022;-65
2023/12/21 02:04:51;;;;;;;3.90;1.50;;;10.40;99.90;;;;;;5016917;28;20057;-65
2023/12/21 02:07:18;;;;;;;6.78;1.70;;;10.40;99.90;;;;;;5023811;28;20472;-67
2023/12/21 02:09:43;;;;;;;5.63;1.75;;;10.40;99.90;;;;;;5023369;28;20038;-66
2023/12/21 02:12:10;;;;;;;4.97;1.85;;;10.40;99.90;;;;;;5020577;28;20047;-67
2023/12/21 02:14:36;;;;;;;4.32;1.80;;;10.40;99.90;;;;;;5023588;28;20027;-65
2023/12/21 02:17:12;;;;;;;2.00;1.20;;;10.40;99.90;;;;;;5014132;28;20021;-65
2023/12/21 02:19:38;;;;;;;3.75;1.30;;;10.40;99.90;;;;;;5022168;28;20057;-63
2023/12/21 02:22:05;;;;;;;3.92;1.35;;;10.40;99.90;;;;;;5021542;28;20391;-67
2023/12/21 02:24:30;;;;;;;3.42;1.40;;;10.40;99.90;;;;;;5012981;28;20095;-67
2023/12/21 02:26:56;;;;;;;5.05;1.50;;;10.40;99.90;;;;;;5029750;28;20480;-67
2023/12/21 02:29:21;;;;;;;3.15;1.23;;;10.40;99.90;;;;;;5024494;28;20034;-66
2023/12/21 02:31:47;;;;;;;3.70;1.27;;;10.40;99.90;;;;;;5013094;28;20091;-66
2023/12/21 02:34:13;;;;;;;3.33;1.40;;;10.40;99.90;;;;;;5012278;28;20104;-66
2023/12/21 02:36:38;;;;;;;6.15;1.77;;;10.40;99.90;;;;;;5017133;28;20105;-67
2023/12/21 02:39:04;;;;;;;4.00;1.73;;;10.40;99.90;;;;;;5018477;28;20479;-67
2023/12/21 02:41:30;;;;;;;4.65;1.48;;;10.40;99.90;;;;;;5011481;28;20100;-65
2023/12/21 02:43:55;;;;;;;2.78;1.27;;;10.30;99.90;;;;;;5013802;28;20435;-67
2023/12/21 02:46:24;;;;;;;3.50;1.75;;;10.30;99.90;;;;;;5018414;28;20022;-66
2023/12/21 02:48:51;;;;;;;3.85;1.70;;;10.30;99.90;;;;;;5012720;28;20113;-65
2023/12/21 02:51:17;;;;;;;2.90;1.50;;;10.30;99.90;;;;;;5015748;28;20076;-67
2023/12/21 02:53:42;;;;;;;2.75;1.60;;;10.30;99.90;;;;;;5018079;28;20034;-66
2023/12/21 02:56:08;;;;;;;2.60;1.42;;;10.30;99.90;;;;;;5019346;28;20393;-65
2023/12/21 02:58:34;;;;;;;2.45;1.10;;;10.40;99.90;;;;;;5019877;28;20662;-66
2023/12/21 03:01:01;;;;;;;3.58;1.50;;;10.40;99.90;;;;;;5013676;28;20087;-67
2023/12/21 03:03:26;;;;;;;3.10;1.30;;;10.40;99.90;;;;;;5020860;28;20032;-64
2023/12/21 03:05:52;;;;;;;2.92;1.40;;;10.40;99.90;;;;;;5022127;28;20105;-67
2023/12/21 03:08:17;;;;;;;2.55;1.20;;;10.40;99.90;;;;;;5017430;28;20056;-67
2023/12/21 03:10:43;;;;;;;2.08;1.33;;;10.40;99.90;;;;;;5017509;28;20033;-65
2023/12/21 03:13:09;;;;;;;1.80;1.40;;;10.40;99.90;;;;;;5015539;28;20080;-66
2023/12/21 03:15:34;;;;;;;5.97;2.00;;;10.40;99.90;;;;;;5019078;28;20029;-67
2023/12/21 03:18:00;;;;;;;3.47;1.40;;;10.40;99.90;;;;;;5012862;28;20049;-66
2023/12/21 03:20:26;;;;;;;2.97;1.40;;;10.40;99.90;;;;;;5012613;28;20068;-65
2023/12/21 03:22:51;;;;;;;1.73;1.27;;;10.40;99.90;;;;;;5012267;28;20048;-64
2023/12/21 03:25:17;;;;;;;2.00;1.25;;;10.40;99.90;;;;;;5016094;28;20710;-67
2023/12/21 03:27:43;;;;;;;5.10;2.28;;;10.40;99.90;;;;;;5014963;28;20049;-66
2023/12/21 03:30:10;;;;;;;3.28;1.42;;;10.40;99.90;;;;;;5020391;28;20049;-66
2023/12/21 03:32:36;;;;;;;4.85;1.45;;;10.40;99.90;;;;;;5019363;28;20026;-66
2023/12/21 03:35:03;;;;;;;3.85;1.50;;;10.40;99.90;;;;;;5017219;28;20029;-65
2023/12/21 03:37:29;;;;;;;3.38;1.55;;;10.40;99.90;;;;;;5024578;28;20105;-67
2023/12/21 03:39:56;;;;;;;5.05;1.80;;;10.40;99.90;;;;;;5021548;28;20018;-66
2023/12/21 03:42:21;;;;;;;6.68;2.00;;;10.40;99.90;;;;;;5019115;28;20526;-67
2023/12/21 03:44:47;;;;;;;3.30;1.73;;;10.40;99.90;;;;;;5025311;28;20030;-65
2023/12/21 03:47:13;;;;;;;3.15;1.60;;;10.40;99.90;;;;;;5017129;28;20403;-67
2023/12/21 03:49:39;;;;;;;3.10;1.35;;;10.40;99.90;;;;;;5020839;28;20518;-65
2023/12/21 03:52:05;;;;;;;4.10;1.70;;;10.40;99.90;;;;;;5022968;28;20045;-67
2023/12/21 03:54:31;;;;;;;3.88;1.52;;;10.40;99.90;;;;;;5021135;28;20026;-65
2023/12/21 03:56:57;;;;;;;4.97;1.60;;;10.40;99.90;;;;;;5022956;28;20104;-68
2023/12/21 03:59:22;;;;;;;4.00;1.77;;;10.40;99.90;;;;;;5025290;28;20089;-67
2023/12/21 04:01:48;;;;;;;3.83;1.30;;;10.40;99.90;;;;;;5019130;28;20053;-67
2023/12/21 04:04:13;;;;;;;3.10;1.40;;;10.40;99.90;;;;;;5023314;28;20030;-64
2023/12/21 04:06:39;;;;;;;6.55;2.28;;;10.40;99.90;;;;;;5022788;28;20125;-66
2023/12/21 04:09:05;;;;;;;2.75;1.30;;;10.40;99.90;;;;;;5019562;28;20075;-67
2023/12/21 04:11:31;;;;;;;3.42;1.42;;;10.40;99.90;;;;;;5019637;28;20018;-67
2023/12/21 04:13:57;;;;;;;4.18;1.45;;;10.40;99.90;;;;;;5019886;28;20040;-67
2023/12/21 04:16:23;;;;;;;2.63;1.30;;;10.40;99.90;;;;;;5023905;28;20022;-67
2023/12/21 04:18:48;;;;;;;3.85;1.50;;;10.40;99.90;;;;;;5021587;28;20029;-67
2023/12/21 04:21:14;;;;;;;3.35;1.63;;;10.40;99.90;;;;;;5023817;28;20028;-66
2023/12/21 04:23:39;;;;;;;3.35;1.60;;;10.40;99.90;;;;;;5020875;28;20100;-67
2023/12/21 04:26:05;;;;;;;5.22;1.60;;;10.40;99.90;;;;;;5024903;28;20022;-68
2023/12/21 04:28:30;;;;;;;2.95;1.40;;;10.40;99.90;;;;;;5023998;28;20034;-67
2023/12/21 04:30:56;;;;;;;4.65;1.77;;;10.40;99.90;;;;;;5024067;28;20424;-65
2023/12/21 04:33:21;;;;;;;6.05;1.58;;;10.40;99.90;;;;;;5020605;28;20101;-67
2023/12/21 04:35:47;;;;;;;3.83;1.48;;;10.40;99.90;;;;;;5018852;28;20029;-66
2023/12/21 04:38:13;;;;;;;5.75;1.65;;;10.40;99.90;;;;;;5017321;28;20025;-66
2023/12/21 04:40:38;;;;;;;4.45;1.50;;;10.40;99.90;;;;;;5034378;28;20022;-67
2023/12/21 04:43:07;;;;;;;2.53;1.20;;;10.40;99.90;;;;;;5017493;28;20025;-65
2023/12/21 04:45:33;;;;;;;4.22;1.58;;;10.50;99.90;;;;;;5017343;28;20021;-66
2023/12/21 04:47:58;;;;;;;3.67;1.48;;;10.50;99.90;;;;;;5021838;28;20403;-67
2023/12/21 04:50:24;;;;;;;2.88;1.20;;;10.40;99.90;;;;;;5022048;28;20167;-66
2023/12/21 04:52:51;;;;;;;4.78;1.55;;;10.50;99.90;;;;;;5019771;28;20045;-66
2023/12/21 04:55:17;;;;;;;3.47;1.40;;;10.40;99.90;;;;;;5019089;28;20108;-67
2023/12/21 04:57:43;;;;;;;4.32;1.40;;;10.50;99.90;;;;;;5028596;28;20101;-67
2023/12/21 05:00:10;;;;;;;3.95;1.40;;;10.50;99.90;;;;;;5013445;28;20429;-66
2023/12/21 05:02:35;;;;;;;3.35;1.38;;;10.50;99.90;;;;;;5016255;28;20013;-67
2023/12/21 05:05:01;;;;;;;5.20;1.70;;;10.50;99.90;;;;;;5016483;28;20026;-66
2023/12/21 05:07:27;;;;;;;3.92;1.63;;;10.50;99.90;;;;;;5016606;28;20029;-66
2023/12/21 05:09:58;;;;;;;3.67;1.42;;;10.50;99.90;;;;;;5031862;28;20029;-65
2023/12/21 05:12:25;;;;;;;2.83;1.15;;;10.50;99.90;;;;;;5015329;28;20109;-67
2023/12/21 05:14:50;;;;;;;2.72;1.30;;;10.50;99.90;;;;;;5025595;28;20146;-68
2023/12/21 05:17:16;;;;;;;5.07;1.45;;;10.60;99.90;;;;;;5019870;28;20022;-67
2023/12/21 05:19:42;;;;;;;3.88;1.40;;;10.60;99.90;;;;;;5027743;28;20033;-67
2023/12/21 05:22:08;;;;;;;2.65;1.13;;;10.60;99.90;;;;;;5015993;28;20022;-67
2023/12/21 05:24:33;;;;;;;4.78;1.90;;;10.60;99.90;;;;;;5013875;28;20025;-66
2023/12/21 05:26:59;;;;;;;4.28;1.65;;;10.60;99.90;;;;;;5024393;28;20036;-64
2023/12/21 05:29:25;;;;;;;5.28;1.52;;;10.60;99.90;;;;;;5014956;28;20131;-67
2023/12/21 05:31:50;;;;;;;3.70;1.60;;;10.60;99.90;;;;;;5023095;28;20029;-65
2023/12/21 05:34:16;;;;;;;5.50;1.40;;;10.60;99.90;;;;;;5023311;28;20029;-64
2023/12/21 05:36:41;;;;;;;5.30;1.60;;;10.60;99.90;;;;;;5020659;28;20025;-64
2023/12/21 05:39:09;;;;;;;3.35;1.20;;;10.60;99.90;;;;;;5018580;28;20061;-64
2023/12/21 05:41:34;;;;;;;5.07;1.75;;;10.60;99.90;;;;;;5025154;28;20025;-65
2023/12/21 05:44:00;;;;;;;4.13;1.80;;;10.50;99.90;;;;;;5016556;28;20041;-65
2023/12/21 05:46:25;;;;;;;6.38;1.63;;;10.60;99.90;;;;;;5010898;28;20037;-64
2023/12/21 05:48:51;;;;;;;6.95;1.80;;;10.60;99.90;;;;;;5013010;28;20052;-65
2023/12/21 05:51:16;;;;;;;6.88;2.00;;;10.60;99.90;;;;;;5012931;28;20423;-64
2023/12/21 05:53:42;;;;;;;4.35;1.70;;;10.60;99.90;;;;;;5016818;28;20416;-65
2023/12/21 05:56:08;;;;;;;4.78;1.55;;;10.60;99.90;;;;;;5015686;28;20024;-65
2023/12/21 05:58:34;;;;;;;5.30;1.90;;;10.60;99.90;;;;;;5021183;28;20021;-65
2023/12/21 06:00:59;;;;;;;4.35;1.83;;;10.60;99.90;;;;;;5013226;28;20083;-64
2023/12/21 06:03:25;;;;;;;5.88;1.95;;;10.60;99.90;;;;;;5019107;28;20439;-65
2023/12/21 06:05:51;;;;;;;2.55;1.50;;;10.60;99.90;;;;;;5020793;28;20025;-65
2023/12/21 06:08:16;;;;;;;5.40;1.70;;;10.50;99.90;;;;;;5021620;28;20396;-64
2023/12/21 06:10:42;;;;;;;3.88;1.17;;;10.50;99.90;;;;;;5019880;28;20037;-64
2023/12/21 06:13:07;;;;;;;4.03;1.85;;;10.60;99.90;;;;;;5029316;28;20033;-66
2023/12/21 06:15:33;;;;;;;4.75;1.70;;;10.60;99.90;;;;;;5022235;28;20472;-67
2023/12/21 06:17:59;;;;;;;3.97;1.63;;;10.50;99.90;;;;;;5015503;28;20508;-65
2023/12/21 06:20:24;;;;;;;4.13;1.95;;;10.50;99.90;;;;;;5026843;28;20112;-64
2023/12/21 06:22:50;;;;;;;5.80;2.03;;;10.50;99.90;;;;;;5018395;28;20018;-63
2023/12/21 06:25:15;;;;;;;5.53;2.30;;;10.60;99.90;;;;;;5020106;28;20430;-65
2023/12/21 06:27:41;;;;;;;4.15;1.52;;;10.60;99.90;;;;;;5023069;28;20036;-65
2023/12/21 06:30:07;;;;;;;2.97;1.60;;;10.60;99.90;;;;;;5020073;28;20038;-64
2023/12/21 06:32:33;;;;;;;3.17;1.80;;;10.60;99.90;;;;;;5018463;28;20044;-66
2023/12/21 06:34:59;;;;;;;5.60;2.05;;;10.60;99.90;;;;;;5025454;28;20022;-63
2023/12/21 06:37:24;;;;;;;3.85;1.50;;;10.60;99.90;;;;;;5018996;28;20065;-63
2023/12/21 06:39:50;;;;;;;2.13;1.20;;;10.60;99.90;;;;;;5018055;28;20685;-65
2023/12/21 06:42:16;;;;;;;2.42;1.15;;;10.60;99.90;;;;;;5018730;28;20018;-65
2023/12/21 06:44:42;;;;;;;3.88;1.25;;;10.60;99.90;;;;;;5016087;28;20175;-64
2023/12/21 06:47:08;;;;;;;2.80;1.58;;;10.60;99.90;;;;;;5018718;28;20105;-65
2023/12/21 06:49:33;;;;;;;3.17;1.50;;;10.60;99.90;;;;;;5017963;28;20083;-65
2023/12/21 06:51:59;;;;;;;3.75;1.65;;;10.60;99.90;;;;;;5021552;28;20030;-64
2023/12/21 06:54:25;;;;;;;2.55;1.27;;;10.60;99.90;;;;;;5030496;28;20507;-64
2023/12/21 06:56:50;;;;;;;3.40;1.70;;;10.60;99.90;;;;;;5015625;28;20105;-64
2023/12/21 06:59:16;;;;;;;3.13;1.38;;;10.70;99.90;;;;;;5024082;28;20387;-65
2023/12/21 07:01:41;;;;;;;3.00;1.58;;;10.70;99.90;;;;;;5022688;28;20373;-65
2023/12/21 07:04:08;;;;;;;6.40;1.80;;;10.70;99.90;;;;;;5023611;28;20115;-64
2023/12/21 07:06:34;;;;;;;2.92;1.52;;;10.60;99.90;;;;;;5032655;28;20503;-63
2023/12/21 07:08:59;;;;;;;3.10;1.52;;;10.60;99.90;;;;;;5021130;28;20029;-64
2023/12/21 07:11:25;;;;;;;7.13;1.90;;;10.60;99.90;;;;;;5025871;28;20048;-64
2023/12/21 07:13:51;;;;;;;2.80;1.20;;;10.60;99.90;;;;;;5023168;28;20523;-65
2023/12/21 07:16:17;;;;;;;4.47;1.50;;;10.60;99.90;;;;;;5021428;28;20093;-65
2023/12/21 07:18:42;;;;;;;2.72;1.50;;;10.60;99.90;;;;;;5019460;28;20049;-64
2023/12/21 07:21:08;;;;;;;3.03;1.70;;;10.60;99.90;;;;;;5023541;28;20013;-66
2023/12/21 07:23:34;;;;;;;2.65;1.45;;;10.60;99.90;;;;;;5025732;28;20033;-66
2023/12/21 07:25:59;;;;;;;3.60;1.45;;;10.60;99.90;;;;;;5016443;28;20038;-64
2023/12/21 07:28:28;;;;;;;3.25;1.55;;;10.60;99.90;;;;;;5011940;28;20167;-65
2023/12/21 07:30:53;;;;;;;4.75;1.98;;;10.60;99.90;;;;;;5017723;28;20030;-63
2023/12/21 07:33:19;;;;;;;4.95;1.80;;;10.60;99.90;;;;;;5029738;28;20095;-65
2023/12/21 07:35:45;;;;;;;6.47;1.75;;;10.60;99.90;;;;;;5028158;28;20113;-66
2023/12/21 07:38:10;;;;;;;4.57;1.45;;;10.60;99.90;;;;;;5030576;28;20418;-65
2023/12/21 07:40:36;;;;;;;4.88;1.60;;;10.60;99.90;;;;;;5016191;28;20033;-69
2023/12/21 07:43:01;;;;;;;3.22;1.23;;;10.60;99.90;;;;;;5027766;28;20036;-64
2023/12/21 07:45:27;;;;;;;3.63;1.52;;;10.60;99.90;;;;;;5017892;28;20022;-66
2023/12/21 07:47:52;;;;;;;7.30;1.90;;;10.60;99.90;;;;;;5017263;28;20407;-65
2023/12/21 07:50:18;;;;;;;5.13;1.25;;;10.50;99.90;;;;;;5026834;28;20488;-64
2023/12/21 07:52:43;;;;;;;2.53;1.33;;;10.60;99.90;;;;;;5024322;28;20524;-65
2023/12/21 07:55:09;;;;;;;3.20;1.75;;;10.60;99.90;;;;;;5031358;28;20036;-64
2023/12/21 07:57:34;;;;;;;5.32;1.90;;;10.60;99.90;;;;;;5015069;28;20474;-65
2023/12/21 08:00:00;;;;;;;3.58;1.60;;;10.60;99.90;;;;;;5027137;28;20026;-64
2023/12/21 08:02:26;;;;;;;3.72;1.20;;;10.60;99.90;;;;;;5012298;28;20028;-66
2023/12/21 08:04:51;;;;;;;5.72;1.40;;;10.60;99.90;;;;;;5016743;28;20100;-66
2023/12/21 08:07:17;;;;;;;5.63;1.23;;;10.60;99.90;;;;;;5028549;28;20025;-66
2023/12/21 08:09:42;;;;;;;5.45;1.50;;;10.60;99.90;;;;;;5028617;28;20063;-65
2023/12/21 08:12:08;;;;;;;7.78;1.48;;;10.60;99.90;;;;;;5019138;28;20028;-64
2023/12/21 08:14:37;;;;;;;3.80;1.30;;;10.60;99.90;;;;;;5027539;28;20052;-63
2023/12/21 08:17:07;;;;;;;2.25;1.17;;;10.70;99.90;;;;;;5023820;28;20014;-65
2023/12/21 08:19:33;;;;;;;2.70;1.30;;;10.70;99.90;;;;;;5020587;28;20025;-64
2023/12/21 08:21:59;;;;;;;1.98;1.10;;;10.70;99.90;;;;;;5030929;28;20108;-66
2023/12/21 08:24:24;;;;;;;4.18;1.17;;;10.70;99.90;;;;;;5032332;28;20543;-65
2023/12/21 08:26:50;;;;;;;2.33;1.25;;;10.70;99.90;;;;;;5028117;28;20025;-65
2023/12/21 08:29:15;;;;;;;1.52;0.90;;;10.70;99.90;;;;;;5037660;28;20033;-64
2023/12/21 08:31:41;;;;;;;3.05;1.02;;;10.70;99.90;;;;;;5034194;28;20504;-66
2023/12/21 08:34:07;;;;;;;1.60;0.90;;;10.80;99.90;;;;;;5025726;28;20033;-66
2023/12/21 08:36:33;;;;;;;2.65;0.95;;;10.80;99.90;;;;;;5027388;28;20029;-64
2023/12/21 08:38:58;;;;;;;1.20;0.90;;;10.80;99.90;;;;;;5038453;28;20084;-65
2023/12/21 08:41:25;;;;;;;1.80;0.75;;;10.80;99.90;;;;;;5021467;28;20048;-63
2023/12/21 08:43:51;;;;;;;2.08;0.70;;;10.80;99.90;;;;;;5025323;28;20362;-66
2023/12/21 08:46:17;;;;;;;2.10;0.88;;;10.80;99.90;;;;;;5023661;28;20090;-64
2023/12/21 08:48:43;;;;;;;4.20;1.00;;;10.80;99.90;;;;;;5026926;28;20033;-66
2023/12/21 08:51:08;;;;;;;1.83;0.80;;;10.80;99.90;;;;;;5021813;28;20021;-63
2023/12/21 08:53:34;;;;;;;2.53;1.30;;;10.80;99.90;;;;;;5030037;28;20041;-65
2023/12/21 08:55:59;;;;;;;2.00;1.00;;;10.80;99.90;;;;;;5026671;28;20040;-66
2023/12/21 08:58:25;;;;;;;1.38;0.70;;;10.80;99.90;;;;;;5025565;28;20048;-64
2023/12/21 09:00:51;;;;;;;2.05;0.70;;;10.90;99.90;;;;;;5030837;28;20041;-67
2023/12/21 09:03:17;;;;;;;3.63;1.00;;;10.90;99.90;;;;;;5030929;28;20148;-66
2023/12/21 09:05:42;;;;;;;2.10;0.73;;;10.90;99.90;;;;;;5030931;28;20017;-67
2023/12/21 09:08:08;;;;;;;1.90;0.90;;;10.90;99.90;;;;;;5027894;28;20025;-67
2023/12/21 09:10:33;;;;;;;2.92;1.05;;;10.90;99.90;;;;;;5025444;28;20562;-64
2023/12/21 09:12:59;;;;;;;1.85;1.00;;;10.90;99.90;;;;;;5027055;28;20480;-67
2023/12/21 09:15:26;;;;;;;1.45;0.70;;;10.90;99.90;;;;;;5027516;28;20029;-67
2023/12/21 09:17:53;;;;;;;4.53;1.05;;;11.00;99.90;;;;;;5029774;28;20395;-65
2023/12/21 09:20:18;;;;;;;1.05;0.70;;;11.00;99.90;;;;;;5027753;28;20105;-66
2023/12/21 09:22:45;;;;;;;2.78;1.20;;;11.00;99.90;;;;;;5029969;28;20104;-65
2023/12/21 09:25:11;;;;;;;4.38;1.05;;;11.00;99.90;;;;;;5034358;28;20510;-67
2023/12/21 09:27:36;;;;;;;1.10;0.80;;;11.10;99.90;;;;;;5027850;28;20137;-67
2023/12/21 09:30:05;;;;;;;4.90;1.48;;;11.10;99.90;;;;;;5028026;28;20491;-64
2023/12/21 09:32:31;;;;;;;1.80;0.82;;;11.10;99.90;;;;;;5028128;28;20120;-66
2023/12/21 09:34:57;;;;;;;3.58;1.00;;;11.10;99.90;;;;;;5029560;28;20018;-66
2023/12/21 09:37:22;;;;;;;5.15;1.00;;;11.10;99.90;;;;;;5024720;28;20025;-65
2023/12/21 09:39:49;;;;;;;3.42;0.90;;;11.10;99.90;;;;;;5022163;28;20014;-66
2023/12/21 09:42:15;;;;;;;3.38;1.08;;;11.10;99.90;;;;;;5024051;28;20010;-66
2023/12/21 09:44:46;;;;;;;2.95;0.90;;;11.10;99.90;;;;;;5028575;28;20107;-65
2023/12/21 09:47:13;;;;;;;2.23;1.00;;;11.20;99.90;;;;;;5025580;28;20388;-66
2023/12/21 09:49:40;;;;;;;2.08;0.90;;;11.10;99.90;;;;;;5027780;28;20281;-66
2023/12/21 09:52:07;;;;;;;1.90;0.70;;;11.20;99.90;;;;;;5024083;28;20026;-66
2023/12/21 09:54:39;;;;;;;3.80;1.23;;;11.20;99.90;;;;;;5025217;28;20022;-66
2023/12/21 09:57:06;;;;;;;2.25;0.82;;;11.20;99.90;;;;;;5022824;28;20156;-66
2023/12/21 09:59:34;;;;;;;3.83;1.10;;;11.20;99.90;;;;;;5021018;28;20032;-66
2023/12/21 10:02:01;;;;;;;4.78;1.38;;;11.20;99.90;;;;;;5016708;28;20073;-65
2023/12/21 10:04:26;;;;;;;1.80;1.00;;;11.30;99.90;;;;;;5018929;28;20029;-66
2023/12/21 10:06:52;;;;;;;2.30;0.77;;;11.30;99.90;;;;;;5021083;28;20056;-65
2023/12/21 10:09:19;;;;;;;1.83;0.98;;;11.30;99.90;;;;;;5021193;28;20022;-65
2023/12/21 10:11:44;;;;;;;2.55;0.93;;;11.30;99.90;;;;;;5024194;28;20419;-66
2023/12/21 10:14:19;;;;;;;4.22;1.00;;;11.40;99.90;;;;;;5020924;28;20030;-66
2023/12/21 10:16:44;;;;;;;1.90;0.73;;;11.40;99.90;;;;;;5020781;28;20107;-65
2023/12/21 10:19:11;;;;;;;2.22;1.02;;;11.40;99.90;;;;;;5021483;28;20665;-67
2023/12/21 10:21:40;;;;;;;2.45;0.80;;;11.40;99.90;;;;;;5020184;28;20029;-64
2023/12/21 10:24:06;;;;;;;1.83;0.80;;;11.50;99.90;;;;;;5018305;28;20072;-66
2023/12/21 10:26:31;;;;;;;2.85;0.60;;;11.50;99.90;;;;;;5018508;28;20092;-66
2023/12/21 10:28:58;;;;;;;4.47;1.25;;;11.50;99.90;;;;;;5017351;28;20025;-65
2023/12/21 10:31:25;;;;;;;3.22;0.70;;;11.50;99.90;;;;;;5021753;28;20047;-66
2023/12/21 10:33:51;;;;;;;1.77;0.60;;;11.50;99.90;;;;;;5020126;28;20503;-65
2023/12/21 10:36:17;;;;;;;3.00;0.60;;;11.50;99.90;;;;;;5016335;28;20018;-65
2023/12/21 10:38:44;;;;;;;2.10;0.80;;;11.50;99.90;;;;;;5027301;28;20603;-66
2023/12/21 10:41:10;;;;;;;2.42;0.70;;;11.60;99.90;;;;;;5029864;28;20020;-65
2023/12/21 10:43:36;;;;;;;2.20;0.70;;;11.60;99.90;;;;;;5029786;28;20104;-65
2023/12/21 10:46:03;;;;;;;1.70;0.80;;;11.60;99.90;;;;;;5030606;28;20037;-66
2023/12/21 10:48:32;;;;;;;3.15;0.88;;;11.60;99.90;;;;;;5027505;28;20025;-66
2023/12/21 10:50:58;;;;;;;2.78;0.95;;;11.70;99.90;;;;;;5025623;28;20026;-65
2023/12/21 10:53:25;;;;;;;1.92;0.90;;;11.70;99.90;;;;;;5027467;28;20045;-66
2023/12/21 10:55:54;;;;;;;2.85;1.00;;;11.70;99.90;;;;;;5027852;28;20033;-67
2023/12/21 10:58:22;;;;;;;1.75;1.00;;;11.70;99.90;;;;;;5026126;28;20026;-66
2023/12/21 11:00:49;;;;;;;1.33;0.60;;;11.80;99.90;;;;;;5028432;28;20024;-65
2023/12/21 11:03:16;;;;;;;2.13;0.80;;;11.80;99.90;;;;;;5028473;28;20113;-66
2023/12/21 11:05:44;;;;;;;2.67;0.95;;;11.80;99.90;;;;;;5023273;28;20040;-66
2023/12/21 11:08:10;;;;;;;2.47;0.77;;;11.90;99.90;;;;;;5020211;28;20049;-66
2023/12/21 11:10:37;;;;;;;2.40;0.77;;;11.90;99.90;;;;;;5025234;28;20057;-65
2023/12/21 11:13:03;;;;;;;1.88;0.75;;;11.90;99.90;;;;;;5026323;28;20138;-67
2023/12/21 11:15:30;;;;;;;2.20;0.75;;;11.90;99.90;;;;;;5025604;28;20029;-66
2023/12/21 11:18:13;;;;;;;1.42;0.52;;;11.90;99.90;;;;;;5025583;28;20634;-64
2023/12/21 11:20:46;;;;;;;1.38;0.73;;;11.90;99.90;;;;;;5021211;28;20030;-65
2023/12/21 11:23:12;;;;;;;3.17;0.85;;;11.90;99.90;;;;;;5021647;28;20438;-65
2023/12/21 11:25:38;;;;;;;2.03;0.80;;;11.90;99.90;;;;;;5024169;28;20034;-65
2023/12/21 11:28:04;;;;;;;2.08;0.50;;;11.90;99.90;;;;;;5015488;28;20491;-64
2023/12/21 11:30:32;;;;;;;1.95;0.88;;;11.80;99.90;;;;;;5022407;28;20022;-65
2023/12/21 11:33:09;;;;;;;1.95;0.90;;;11.90;99.90;;;;;;5021218;28;20025;-64
2023/12/21 11:35:35;;;;;;;1.08;0.60;;;11.80;99.90;;;;;;5017303;28;20059;-66
2023/12/21 11:38:07;;;;;;;1.80;0.60;;;11.80;99.90;;;;;;5024267;28;20029;-67
2023/12/21 11:40:36;;;;;;;1.63;0.60;;;11.90;99.90;;;;;;5018092;28;20034;-66
2023/12/21 11:43:06;;;;;;;2.63;0.68;;;11.90;99.90;;;;;;5020637;28;20537;-66
2023/12/21 11:45:32;;;;;;;2.15;0.65;;;11.90;99.90;;;;;;5021810;28;20104;-65
2023/12/21 11:48:04;;;;;;;2.25;0.63;;;11.90;99.90;;;;;;5021352;28;20168;-67
2023/12/21 11:50:31;;;;;;;0.88;0.60;;;11.90;99.90;;;;;;5019197;28;20541;-65
2023/12/21 11:53:07;;;;;;;1.52;0.50;;;12.00;99.90;;;;;;5025417;28;20033;-64
2023/12/21 11:55:41;;;;;;;1.67;0.90;;;12.00;99.90;;;;;;5023809;28;20060;-63
2023/12/21 11:58:16;;;;;;;2.05;0.70;;;12.00;99.90;;;;;;5023688;28;20388;-65
2023/12/21 12:00:44;;;;;;;3.20;0.90;;;12.00;99.90;;;;;;5023216;28;20036;-66
2023/12/21 12:03:12;;;;;;;2.08;0.60;;;12.00;99.90;;;;;;5025069;28;20029;-66
2023/12/21 12:05:38;;;;;;;1.17;0.50;;;12.00;99.90;;;;;;5021549;28;20030;-66
2023/12/21 12:08:03;;;;;;;2.67;0.90;;;12.00;99.90;;;;;;5024115;28;20045;-66
2023/12/21 12:10:29;;;;;;;1.65;0.70;;;12.00;99.90;;;;;;5028471;28;20025;-67
2023/12/21 12:12:55;;;;;;;2.25;0.90;;;12.00;99.90;;;;;;5029293;28;20021;-65
2023/12/21 12:15:21;;;;;;;2.55;0.88;;;12.00;99.90;;;;;;5028934;28;20044;-66
2023/12/21 12:17:46;;;;;;;4.50;0.77;;;12.00;99.90;;;;;;5027351;28;20041;-66
2023/12/21 12:20:12;;;;;;;3.53;1.00;;;12.10;99.90;;;;;;5025927;28;20823;-63
2023/12/21 12:22:38;;;;;;;4.95;0.80;;;12.10;99.90;;;;;;5027571;28;20022;-64
2023/12/21 12:25:07;;;;;;;1.15;0.90;;;12.20;99.90;;;;;;5029677;28;20155;-66
2023/12/21 12:27:33;;;;;;;2.13;0.88;;;12.30;99.90;;;;;;5029016;28;20120;-66
2023/12/21 12:29:59;;;;;;;4.10;0.90;;;12.70;99.90;;;;;;5028433;28;20403;-66
2023/12/21 12:32:25;;;;;;;3.65;0.90;;;13.10;99.90;;;;;;5028110;28;20017;-65
2023/12/21 12:34:51;;;;;;;1.92;1.35;;;13.10;99.90;;;;;;5028885;28;20029;-63
2023/12/21 12:37:20;;;;;;;1.27;0.80;;;12.90;99.90;;;;;;5028485;28;20017;-67
2023/12/21 12:39:47;;;;;;;3.38;1.00;;;12.70;99.90;;;;;;5029243;28;20122;-66
2023/12/21 12:42:12;;;;;;;1.83;0.80;;;12.60;99.90;;;;;;5026029;28;20033;-67